createdAt,value
2019-02-23T00:00:43.619Z,93.80
2019-02-23T00:03:17.813Z,93.50
2019-02-23T00:05:48.907Z,93.70
2019-02-23T00:08:19.984Z,93.90
2019-02-23T00:10:51.194Z,93.90
2019-02-23T00:13:22.270Z,94.00
2019-02-23T00:16:05.353Z,94.00
2019-02-23T00:18:35.462Z,94.00
2019-02-23T00:21:07.976Z,94.10
2019-02-23T00:23:38.771Z,94.10
2019-02-23T00:26:11.306Z,93.90
2019-02-23T00:28:42.546Z,94.10
2019-02-23T00:31:13.900Z,94.00
2019-02-23T00:33:44.729Z,94.00
2019-02-23T00:36:15.876Z,94.10
2019-02-23T00:38:50.162Z,94.20
2019-02-23T00:41:21.752Z,94.20
2019-02-23T00:43:52.858Z,94.20
2019-02-23T00:46:23.662Z,94.40
2019-02-23T00:48:54.402Z,94.30
2019-02-23T00:51:26.280Z,94.10
2019-02-23T00:54:02.561Z,94.00
2019-02-23T00:56:34.485Z,93.90
2019-02-23T00:59:05.569Z,93.80
2019-02-23T01:01:36.449Z,93.90
2019-02-23T01:04:09.117Z,94.00
2019-02-23T01:06:43.197Z,94.00
2019-02-23T01:09:17.033Z,94.10
2019-02-23T01:11:51.248Z,94.20
2019-02-23T01:14:23.663Z,94.20
2019-02-23T01:16:55.595Z,94.40
2019-02-23T01:19:28.599Z,94.40
2019-02-23T01:21:59.903Z,94.40
2019-02-23T01:24:33.304Z,94.50
2019-02-23T01:27:05.709Z,94.40
2019-02-23T01:29:36.761Z,94.70
2019-02-23T01:32:07.493Z,94.80
2019-02-23T01:34:38.423Z,95.00
2019-02-23T01:37:09.368Z,94.90
2019-02-23T01:39:41.869Z,95.00
2019-02-23T01:42:15.447Z,95.20
2019-02-23T01:44:51.122Z,95.20
2019-02-23T01:47:23.259Z,95.40
2019-02-23T01:49:58.899Z,95.30
2019-02-23T01:52:27.573Z,95.30
2019-02-23T01:55:01.196Z,95.20
2019-02-23T01:57:32.422Z,95.10
2019-02-23T02:00:04.510Z,95.20
2019-02-23T02:02:36.818Z,95.20
2019-02-23T02:05:08.129Z,95.30
2019-02-23T02:07:39.036Z,95.30
2019-02-23T02:10:11.329Z,95.40
2019-02-23T02:12:43.991Z,95.40
2019-02-23T02:15:18.416Z,95.50
2019-02-23T02:17:54.204Z,95.20
2019-02-23T02:20:25.660Z,95.30
2019-02-23T02:23:00.663Z,95.30
2019-02-23T02:25:33.534Z,95.30
2019-02-23T02:28:05.507Z,95.40
2019-02-23T02:30:36.645Z,95.40
2019-02-23T02:33:07.719Z,95.30
2019-02-23T02:35:39.027Z,95.40
2019-02-23T02:38:10.511Z,95.40
2019-02-23T02:40:41.522Z,95.30
2019-02-23T02:43:18.101Z,95.20
2019-02-23T02:45:50.961Z,95.20
2019-02-23T02:48:22.010Z,95.10
2019-02-23T02:50:52.864Z,95.00
2019-02-23T02:53:24.115Z,95.20
2019-02-23T02:55:55.123Z,95.00
2019-02-23T02:58:26.170Z,95.20
2019-02-23T03:00:57.107Z,95.30
2019-02-23T03:03:27.945Z,95.40
2019-02-23T03:05:59.005Z,95.60
2019-02-23T03:08:29.712Z,95.50
2019-02-23T03:11:00.561Z,95.90
2019-02-23T03:13:31.924Z,95.50
2019-02-23T03:16:02.945Z,95.50
2019-02-23T03:18:33.779Z,95.50
2019-02-23T03:21:06.912Z,95.40
2019-02-23T03:23:38.535Z,95.30
2019-02-23T03:26:09.782Z,95.30
2019-02-23T03:28:40.612Z,95.40
2019-02-23T03:31:11.571Z,95.80
2019-02-23T03:33:42.407Z,95.70
2019-02-23T03:36:14.850Z,95.40
2019-02-23T03:38:46.782Z,95.90
2019-02-23T03:41:17.640Z,96.50
2019-02-23T03:43:48.496Z,96.60
2019-02-23T03:46:19.334Z,96.20
2019-02-23T03:48:49.944Z,96.10
2019-02-23T03:51:20.601Z,96.10
2019-02-23T03:53:51.340Z,96.20
2019-02-23T03:56:22.208Z,96.20
2019-02-23T03:58:53.008Z,96.10
2019-02-23T04:01:24.496Z,96.30
2019-02-23T04:03:55.326Z,96.50
2019-02-23T04:06:26.219Z,96.60
2019-02-23T04:08:57.062Z,96.40
2019-02-23T04:11:27.638Z,96.30
2019-02-23T04:13:58.599Z,96.40
2019-02-23T04:16:29.370Z,96.30
2019-02-23T04:19:01.946Z,96.40
2019-02-23T04:21:32.981Z,96.60
2019-02-23T04:24:03.949Z,96.60
2019-02-23T04:26:34.756Z,96.60
2019-02-23T04:29:05.695Z,96.40
2019-02-23T04:31:39.191Z,96.40
2019-02-23T04:34:10.340Z,96.40
2019-02-23T04:36:41.171Z,96.70
2019-02-23T04:39:11.990Z,96.80
2019-02-23T04:41:43.177Z,97.00
2019-02-23T04:44:13.991Z,97.10
2019-02-23T04:46:44.959Z,97.10
2019-02-23T04:49:17.027Z,97.10
2019-02-23T04:51:47.989Z,97.10
2019-02-23T04:54:19.163Z,96.90
2019-02-23T04:56:50.939Z,96.90
2019-02-23T04:59:21.953Z,97.10
2019-02-23T05:01:55.605Z,97.40
2019-02-23T05:04:26.578Z,97.50
2019-02-23T05:06:57.402Z,97.40
2019-02-23T05:09:29.252Z,97.30
2019-02-23T05:12:00.155Z,97.20
2019-02-23T05:14:31.093Z,97.40
2019-02-23T05:17:02.293Z,97.60
2019-02-23T05:19:33.054Z,97.80
2019-02-23T05:22:03.949Z,98.10
2019-02-23T05:24:35.243Z,98.30
2019-02-23T05:27:07.187Z,98.50
2019-02-23T05:29:38.148Z,98.50
2019-02-23T05:32:11.592Z,98.40
2019-02-23T05:34:42.459Z,98.10
2019-02-23T05:37:13.646Z,98.10
2019-02-23T05:39:44.508Z,98.00
2019-02-23T05:42:15.439Z,98.00
2019-02-23T05:44:46.248Z,98.20
2019-02-23T05:47:18.807Z,98.00
2019-02-23T05:49:51.387Z,97.90
2019-02-23T05:52:22.611Z,98.10
2019-02-23T05:54:53.508Z,97.80
2019-02-23T05:57:26.351Z,97.40
2019-02-23T05:59:58.295Z,97.20
2019-02-23T06:02:29.441Z,96.60
2019-02-23T06:05:00.308Z,96.50
2019-02-23T06:07:31.716Z,96.90
2019-02-23T06:10:02.486Z,96.50
2019-02-23T06:12:33.479Z,96.50
2019-02-23T06:15:04.314Z,96.50
2019-02-23T06:17:40.448Z,96.50
2019-02-23T06:20:13.710Z,96.50
2019-02-23T06:22:46.731Z,96.60
2019-02-23T06:25:16.868Z,96.30
2019-02-23T06:27:48.008Z,96.20
2019-02-23T06:30:18.898Z,96.10
2019-02-23T06:32:51.479Z,96.10
2019-02-23T06:35:22.723Z,96.00
2019-02-23T06:37:53.928Z,96.00
2019-02-23T06:40:25.247Z,95.60
2019-02-23T06:42:57.951Z,95.30
2019-02-23T06:45:28.998Z,95.00
2019-02-23T06:48:12.468Z,95.00
2019-02-23T06:50:51.281Z,95.30
2019-02-23T06:53:21.301Z,95.00
2019-02-23T06:55:52.443Z,94.70
2019-02-23T06:58:28.594Z,94.30
2019-02-23T07:00:59.338Z,94.40
2019-02-23T07:03:38.992Z,94.70
2019-02-23T07:06:12.698Z,94.60
2019-02-23T07:09:09.370Z,94.70
2019-02-23T07:12:04.983Z,94.70
2019-02-23T07:15:19.732Z,94.70
2019-02-23T07:18:00.022Z,94.20
2019-02-23T07:24:09.119Z,94.20
2019-02-23T07:27:23.252Z,94.10
2019-02-23T07:30:30.291Z,93.60
2019-02-23T07:38:01.644Z,93.30
2019-02-23T07:43:46.103Z,93.90
2019-02-23T07:46:22.125Z,93.50
2019-02-23T07:49:16.318Z,93.10
2019-02-23T07:54:40.974Z,92.20
2019-02-23T07:57:33.193Z,92.20
2019-02-23T08:00:31.514Z,92.30
2019-02-23T08:03:12.961Z,92.20
2019-02-23T08:05:54.030Z,92.00
2019-02-23T08:08:50.126Z,91.50
2019-02-23T08:11:30.592Z,91.50
2019-02-23T08:15:05.694Z,91.30
2019-02-23T08:17:43.744Z,91.40
2019-02-23T08:20:45.692Z,90.40
2019-02-23T08:23:25.864Z,90.10
2019-02-23T08:28:48.878Z,89.20
2019-02-23T08:31:19.488Z,88.60
2019-02-23T08:33:50.088Z,89.30
2019-02-23T08:36:23.712Z,89.60
2019-02-23T08:38:54.296Z,90.40
2019-02-23T08:41:24.967Z,89.70
2019-02-23T08:43:55.943Z,89.20
2019-02-23T08:46:26.888Z,88.40
2019-02-23T08:48:57.779Z,88.60
2019-02-23T08:51:28.564Z,89.30
2019-02-23T08:53:59.226Z,87.60
2019-02-23T08:56:31.063Z,86.10
2019-02-23T08:59:03.194Z,86.60
2019-02-23T09:01:33.967Z,85.30
2019-02-23T09:04:04.905Z,84.10
2019-02-23T09:06:35.701Z,84.50
2019-02-23T09:09:08.165Z,85.50
2019-02-23T09:11:39.447Z,87.00
2019-02-23T09:14:09.875Z,85.90
2019-02-23T09:16:40.349Z,84.60
2019-02-23T09:19:11.109Z,80.40
2019-02-23T09:21:43.217Z,80.80
2019-02-23T09:24:14.013Z,81.80
2019-02-23T09:26:44.629Z,82.60
2019-02-23T09:29:15.497Z,84.60
2019-02-23T09:31:46.197Z,84.00
2019-02-23T09:34:17.057Z,83.80
2019-02-23T09:36:47.493Z,83.70
2019-02-23T09:39:18.086Z,82.00
2019-02-23T09:41:48.683Z,83.70
2019-02-23T09:44:19.124Z,80.80
2019-02-23T09:46:49.758Z,79.50
2019-02-23T09:49:20.318Z,75.70
2019-02-23T09:51:51.090Z,75.90
2019-02-23T09:54:21.615Z,69.60
2019-02-23T09:56:52.417Z,64.20
2019-02-23T09:59:23.048Z,62.40
2019-02-23T10:01:53.757Z,65.20
2019-02-23T10:04:24.255Z,67.00
2019-02-23T10:06:54.938Z,69.60
2019-02-23T10:09:25.710Z,65.40
2019-02-23T10:11:56.483Z,64.00
2019-02-23T10:14:27.068Z,64.50
2019-02-23T10:16:58.038Z,65.30
2019-02-23T10:19:29.956Z,64.70
2019-02-23T10:22:00.812Z,63.30
2019-02-23T10:24:31.601Z,64.60
2019-02-23T10:27:02.458Z,63.00
2019-02-23T10:29:33.271Z,65.30
2019-02-23T10:32:04.207Z,63.50
2019-02-23T10:34:35.334Z,64.40
2019-02-23T10:37:05.987Z,64.70
2019-02-23T10:39:36.928Z,63.30
2019-02-23T10:42:08.159Z,63.40
2019-02-23T10:44:38.809Z,61.50
2019-02-23T10:47:09.523Z,62.60
2019-02-23T10:49:40.438Z,65.10
2019-02-23T10:52:11.435Z,63.10
2019-02-23T10:54:41.945Z,63.50
2019-02-23T10:57:16.253Z,64.70
2019-02-23T10:59:47.036Z,66.80
2019-02-23T11:02:18.238Z,65.10
2019-02-23T11:04:48.897Z,64.90
2019-02-23T11:07:19.683Z,64.70
2019-02-23T11:09:50.669Z,62.30
2019-02-23T11:12:21.474Z,64.10
2019-02-23T11:14:52.369Z,63.40
2019-02-23T11:17:27.020Z,65.80
2019-02-23T11:19:57.762Z,65.70
2019-02-23T11:22:28.838Z,63.30
2019-02-23T11:24:59.457Z,65.00
2019-02-23T11:27:30.323Z,65.10
2019-02-23T11:30:02.374Z,64.70
2019-02-23T11:32:33.356Z,62.90
2019-02-23T11:35:04.354Z,63.70
2019-02-23T11:37:35.134Z,64.10
2019-02-23T11:40:06.678Z,65.10
2019-02-23T11:42:38.906Z,65.00
2019-02-23T11:45:10.062Z,63.20
2019-02-23T11:47:41.687Z,65.50
2019-02-23T11:50:12.744Z,60.20
2019-02-23T11:52:43.994Z,60.90
2019-02-23T11:55:15.157Z,61.70
2019-02-23T11:57:46.109Z,64.80
2019-02-23T12:00:16.747Z,64.20
2019-02-23T12:02:52.432Z,63.10
2019-02-23T12:05:20.012Z,63.80
2019-02-23T12:07:50.467Z,64.40
2019-02-23T12:10:21.226Z,60.70
2019-02-23T12:12:51.845Z,57.80
2019-02-23T12:15:22.487Z,55.20
2019-02-23T12:17:53.015Z,54.10
2019-02-23T12:20:24.553Z,53.60
2019-02-23T12:22:55.425Z,50.50
2019-02-23T12:25:25.965Z,46.90
2019-02-23T12:27:56.485Z,46.80
2019-02-23T12:30:27.348Z,47.30
2019-02-23T12:32:58.189Z,46.80
2019-02-23T12:35:29.109Z,41.80
2019-02-23T12:38:00.074Z,39.20
2019-02-23T12:40:30.879Z,38.60
2019-02-23T12:43:01.783Z,34.60
2019-02-23T12:45:32.368Z,33.50
2019-02-23T12:48:04.311Z,28.80
2019-02-23T12:50:35.188Z,27.40
2019-02-23T12:53:06.148Z,30.00
2019-02-23T12:55:36.757Z,31.40
2019-02-23T12:58:07.694Z,30.00
2019-02-23T13:00:38.414Z,28.10
2019-02-23T13:03:09.300Z,26.40
2019-02-23T13:05:39.983Z,26.30
2019-02-23T13:08:10.742Z,27.20
2019-02-23T13:10:42.696Z,28.60
2019-02-23T13:13:23.359Z,28.80
2019-02-23T13:16:03.496Z,29.60
2019-02-23T13:22:51.329Z,35.10
2019-02-23T13:25:56.154Z,37.10
2019-02-23T13:28:58.559Z,37.40
2019-02-23T13:32:17.055Z,37.60
2019-02-23T13:35:33.783Z,35.90
2019-02-23T13:38:37.387Z,35.40
2019-02-23T13:41:51.871Z,36.30
2019-02-23T13:44:56.971Z,36.80
2019-02-23T13:48:14.175Z,37.90
2019-02-23T13:50:53.719Z,40.50
2019-02-23T13:54:08.467Z,41.50
2019-02-23T13:57:16.966Z,42.30
2019-02-23T14:00:27.499Z,43.30
2019-02-23T14:03:36.684Z,45.60
2019-02-23T14:06:51.722Z,48.30
2019-02-23T14:09:58.276Z,51.30
2019-02-23T14:13:01.269Z,51.60
2019-02-23T14:16:02.262Z,53.30
2019-02-23T14:19:26.301Z,54.40
2019-02-23T14:22:10.972Z,55.30
2019-02-23T14:25:23.612Z,55.60
2019-02-23T14:28:27.241Z,55.80
2019-02-23T14:31:52.220Z,56.10
2019-02-23T14:35:17.547Z,55.20
2019-02-23T14:38:50.776Z,56.90
2019-02-23T14:41:41.498Z,57.40
2019-02-23T14:44:41.011Z,58.00
2019-02-23T14:47:45.852Z,59.60
2019-02-23T14:51:09.341Z,60.10
2019-02-23T14:54:20.175Z,62.60
2019-02-23T14:57:11.800Z,62.00
2019-02-23T15:00:19.579Z,63.70
2019-02-23T15:03:46.395Z,64.90
2019-02-23T15:07:06.099Z,66.80
2019-02-23T15:10:15.549Z,67.80
2019-02-23T15:13:33.162Z,70.00
2019-02-23T15:16:50.507Z,71.10
2019-02-23T15:19:53.827Z,71.10
2019-02-23T15:23:29.564Z,72.60
2019-02-23T15:26:31.692Z,72.90
2019-02-23T15:29:49.066Z,74.40
2019-02-23T15:32:32.735Z,75.50
2019-02-23T15:35:33.427Z,75.80
2019-02-23T15:38:33.056Z,75.70
2019-02-23T15:41:40.634Z,76.00
2019-02-23T15:44:47.997Z,77.00
2019-02-23T15:47:43.811Z,77.30
2019-02-23T15:50:14.457Z,78.20
2019-02-23T15:52:45.391Z,79.60
2019-02-23T15:55:25.666Z,79.60
2019-02-23T15:57:49.302Z,79.90
2019-02-23T16:00:19.884Z,81.20
2019-02-23T16:02:50.350Z,81.00
2019-02-23T16:05:21.318Z,79.90
2019-02-23T16:07:52.083Z,79.40
2019-02-23T16:10:22.865Z,80.00
2019-02-23T16:12:53.364Z,81.60
2019-02-23T16:15:24.002Z,81.40
2019-02-23T16:17:54.854Z,81.10
2019-02-23T16:20:25.500Z,81.30
2019-02-23T16:22:56.076Z,80.60
2019-02-23T16:25:37.854Z,81.30
2019-02-23T16:27:59.111Z,82.80
2019-02-23T16:30:29.729Z,82.20
2019-02-23T16:33:01.648Z,83.10
2019-02-23T16:35:32.194Z,83.80
2019-02-23T16:38:03.055Z,83.20
2019-02-23T16:40:33.820Z,83.60
2019-02-23T16:43:04.429Z,82.00
2019-02-23T16:45:35.230Z,82.30
2019-02-23T16:48:06.129Z,82.50
2019-02-23T16:50:36.893Z,81.40
2019-02-23T16:53:07.645Z,80.60
2019-02-23T16:55:50.268Z,81.90
2019-02-23T16:58:10.585Z,81.00
2019-02-23T17:00:41.475Z,80.30
2019-02-23T17:03:12.371Z,79.40
2019-02-23T17:05:43.271Z,77.10
2019-02-23T17:08:13.741Z,74.40
2019-02-23T17:10:44.309Z,74.50
2019-02-23T17:13:14.853Z,74.80
2019-02-23T17:15:45.308Z,76.40
2019-02-23T17:18:16.113Z,77.40
2019-02-23T17:20:46.576Z,76.00
2019-02-23T17:23:17.051Z,77.70
2019-02-23T17:25:47.596Z,78.60
2019-02-23T17:28:18.163Z,79.30
2019-02-23T17:30:48.967Z,79.90
2019-02-23T17:33:19.560Z,80.20
2019-02-23T17:35:50.873Z,80.60
2019-02-23T17:38:21.554Z,80.40
2019-02-23T17:40:52.418Z,82.40
2019-02-23T17:43:23.110Z,82.80
2019-02-23T17:45:53.806Z,83.90
2019-02-23T17:48:24.620Z,84.90
2019-02-23T17:50:55.414Z,83.40
2019-02-23T17:53:25.823Z,84.10
2019-02-23T17:55:56.346Z,81.70
2019-02-23T17:58:27.004Z,82.50
2019-02-23T18:00:57.883Z,82.50
2019-02-23T18:03:28.298Z,83.20
2019-02-23T18:05:58.891Z,84.50
2019-02-23T18:08:29.597Z,84.60
2019-02-23T18:11:00.615Z,85.30
2019-02-23T18:13:31.525Z,86.70
2019-02-23T18:16:02.460Z,87.20
2019-02-23T18:18:32.953Z,88.20
2019-02-23T18:21:03.402Z,88.50
2019-02-23T18:23:35.186Z,88.80
2019-02-23T18:26:05.857Z,88.90
2019-02-23T18:28:36.883Z,89.20
2019-02-23T18:31:07.798Z,89.60
2019-02-23T18:33:39.037Z,90.00
2019-02-23T18:36:10.246Z,90.10
2019-02-23T18:38:41.010Z,90.30
2019-02-23T18:41:11.847Z,90.60
2019-02-23T18:43:42.377Z,90.60
2019-02-23T18:46:12.793Z,90.70
2019-02-23T18:48:43.557Z,90.40
2019-02-23T18:51:14.247Z,90.30
2019-02-23T18:53:45.539Z,90.60
2019-02-23T18:56:16.813Z,90.80
2019-02-23T18:58:47.626Z,91.10
2019-02-23T19:01:18.370Z,90.80
2019-02-23T19:03:49.290Z,90.80
2019-02-23T19:06:20.124Z,90.90
2019-02-23T19:08:53.351Z,91.00
2019-02-23T19:11:23.988Z,90.60
2019-02-23T19:13:56.321Z,90.90
2019-02-23T19:16:26.966Z,91.00
2019-02-23T19:18:57.691Z,90.60
2019-02-23T19:21:28.955Z,90.60
2019-02-23T19:24:00.343Z,90.50
2019-02-23T19:26:38.028Z,90.00
2019-02-23T19:29:03.799Z,90.30
2019-02-23T19:31:34.746Z,90.00
2019-02-23T19:34:05.663Z,89.80
2019-02-23T19:36:36.544Z,90.20
2019-02-23T19:39:09.535Z,90.00
2019-02-23T19:41:42.447Z,89.90
2019-02-23T19:44:13.413Z,89.90
2019-02-23T19:46:58.497Z,89.70
2019-02-23T19:49:29.222Z,89.50
2019-02-23T19:52:00.277Z,89.50
2019-02-23T19:54:30.988Z,90.10
2019-02-23T19:57:02.063Z,88.80
2019-02-23T19:59:33.998Z,89.00
2019-02-23T20:02:04.689Z,88.10
2019-02-23T20:04:35.578Z,88.20
2019-02-23T20:07:06.413Z,87.70
2019-02-23T20:09:37.180Z,87.60
2019-02-23T20:12:07.776Z,86.70
2019-02-23T20:14:38.349Z,87.30
2019-02-23T20:17:09.102Z,87.40
2019-02-23T20:19:39.790Z,86.90
2019-02-23T20:22:10.699Z,87.40
2019-02-23T20:24:41.436Z,87.70
2019-02-23T20:27:12.392Z,87.90
2019-02-23T20:29:43.268Z,88.50
2019-02-23T20:32:13.945Z,89.30
2019-02-23T20:34:44.897Z,89.20
2019-02-23T20:37:15.977Z,89.50
2019-02-23T20:39:46.538Z,89.30
2019-02-23T20:42:17.296Z,89.30
2019-02-23T20:44:47.935Z,89.40
2019-02-23T20:47:18.551Z,89.70
2019-02-23T20:49:50.272Z,90.20
2019-02-23T20:52:21.128Z,90.40
2019-02-23T20:54:51.804Z,90.70
2019-02-23T20:57:22.528Z,90.90
2019-02-23T20:59:53.312Z,91.00
2019-02-23T21:02:23.931Z,91.00
2019-02-23T21:04:54.384Z,90.90
2019-02-23T21:07:25.141Z,91.00
2019-02-23T21:09:55.814Z,91.00
2019-02-23T21:12:27.547Z,91.30
2019-02-23T21:14:58.120Z,91.50
2019-02-23T21:17:28.635Z,91.30
2019-02-23T21:19:59.381Z,91.50
2019-02-23T21:22:30.137Z,91.50
2019-02-23T21:25:00.590Z,91.50
2019-02-23T21:27:31.501Z,91.50
2019-02-23T21:30:02.219Z,91.40
2019-02-23T21:32:34.049Z,91.60
2019-02-23T21:35:05.062Z,91.20
2019-02-23T21:37:37.259Z,91.40
2019-02-23T21:40:08.379Z,91.70
2019-02-23T21:42:39.127Z,91.60
2019-02-23T21:45:09.918Z,91.80
2019-02-23T21:47:41.020Z,91.70
2019-02-23T21:50:12.409Z,91.60
2019-02-23T21:52:43.235Z,91.50
2019-02-23T21:55:13.828Z,91.70
2019-02-23T21:57:44.400Z,91.70
2019-02-23T22:00:15.263Z,91.50
2019-02-23T22:02:45.973Z,91.80
2019-02-23T22:05:16.823Z,91.40
2019-02-23T22:07:47.905Z,91.10
2019-02-23T22:10:18.455Z,91.10
2019-02-23T22:12:49.119Z,91.50
2019-02-23T22:15:20.813Z,91.90
2019-02-23T22:17:51.405Z,91.80
2019-02-23T22:20:22.013Z,91.90
2019-02-23T22:22:54.612Z,91.80
2019-02-23T22:25:25.165Z,91.90
2019-02-23T22:27:55.847Z,92.00
2019-02-23T22:30:26.512Z,91.90
2019-02-23T22:32:57.172Z,91.70
2019-02-23T22:35:27.782Z,91.80
2019-02-23T22:37:58.418Z,91.80
2019-02-23T22:40:28.860Z,92.20
2019-02-23T22:42:59.492Z,91.90
2019-02-23T22:45:30.247Z,91.90
2019-02-23T22:48:01.152Z,92.10
2019-02-23T22:50:31.713Z,92.00
2019-02-23T22:53:02.517Z,92.10
2019-02-23T22:55:33.397Z,92.20
2019-02-23T22:58:04.343Z,92.40
2019-02-23T23:00:54.867Z,92.50
2019-02-23T23:03:26.680Z,92.50
2019-02-23T23:05:57.355Z,92.10
2019-02-23T23:08:28.428Z,92.10
2019-02-23T23:10:58.902Z,91.90
2019-02-23T23:13:29.543Z,91.90
2019-02-23T23:16:00.068Z,92.20
2019-02-23T23:18:30.493Z,92.30
2019-02-23T23:21:01.457Z,92.50
2019-02-23T23:23:32.132Z,92.60
2019-02-23T23:26:03.327Z,92.50
2019-02-23T23:28:34.163Z,92.10
2019-02-23T23:31:04.983Z,92.30
2019-02-23T23:33:36.093Z,92.20
2019-02-23T23:36:06.521Z,92.40
2019-02-23T23:38:37.366Z,92.30
2019-02-23T23:41:07.989Z,92.20
2019-02-23T23:43:39.668Z,92.30
2019-02-23T23:46:10.338Z,92.20
2019-02-23T23:48:40.932Z,92.10
2019-02-23T23:51:11.484Z,92.20
2019-02-23T23:53:42.344Z,92.40
2019-02-23T23:56:13.104Z,92.30
2019-02-23T23:58:43.644Z,92.00
